createdAt,value
2016-04-08T08:42:30.507Z,46.56
2016-04-08T08:42:40.507Z,45.98
2016-04-08T08:42:50.507Z,46.56
2016-04-08T08:43:00.525Z,45.98
2016-04-08T08:43:10.525Z,45.78
2016-04-08T08:47:03.739Z,45.98
2016-04-08T08:47:13.739Z,45.78
2016-04-08T08:47:24.145Z,45.98
2016-04-08T09:52:52.414Z,15.26
2016-04-08T09:53:28.480Z,15.26
2016-04-08T09:58:16.746Z,15.26
2016-04-08T09:58:26.762Z,15.26
2016-04-08T09:58:36.762Z,15.26
2016-04-08T09:58:46.762Z,15.26
2016-04-08T09:58:56.781Z,15.26
2016-04-08T09:59:06.781Z,15.26
2016-04-08T09:59:16.796Z,15.26
2016-04-08T09:59:26.796Z,15.26
2016-04-08T09:59:36.828Z,15.26
2016-04-08T09:59:46.843Z,15.26
2016-04-08T09:59:56.815Z,15.26
2016-04-08T10:00:06.877Z,15.26
2016-04-08T10:00:29.815Z,15.26
2016-04-08T10:00:39.846Z,15.26
2016-04-08T10:00:49.831Z,15.26
2016-04-08T10:00:59.834Z,15.26
2016-04-08T10:01:29.255Z,15.26
2016-04-08T10:02:05.320Z,15.26
2016-04-08T10:02:15.289Z,15.26
2016-04-08T10:02:25.289Z,15.26
2016-04-08T10:02:35.304Z,15.26
2016-04-08T10:02:45.304Z,61.58
2016-04-08T10:03:08.635Z,49.75
2016-04-08T10:04:04.904Z,47.89
2016-04-08T10:05:38.422Z,48.06
2016-04-08T10:06:14.456Z,47.28
2016-04-08T10:08:37.180Z,45.85
2016-04-08T10:08:47.305Z,45.44
2016-04-08T10:08:57.198Z,45.15
2016-04-08T10:09:07.214Z,44.76
2016-04-08T10:09:17.198Z,44.86
2016-04-08T10:09:27.214Z,44.86
2016-04-08T10:09:37.230Z,44.67
2016-04-08T10:09:47.698Z,44.86
2016-04-08T10:09:57.232Z,44.57
2016-04-08T10:10:07.247Z,44.18
2016-04-08T10:10:17.247Z,43.99
2016-04-08T10:10:27.247Z,43.99
2016-04-08T10:10:37.263Z,43.99
2016-04-08T10:10:47.263Z,43.89
2016-04-08T10:10:57.267Z,43.6
2016-04-08T10:11:07.267Z,43.5
2016-04-08T10:11:17.282Z,43.6
2016-04-08T10:11:27.282Z,43.21
2016-04-08T10:11:37.298Z,43.21
2016-04-08T10:11:47.314Z,43.12
